sensor_id;sensor_type;location;lat;lon;timestamp;P1;durP1;ratioP1;P2;durP2;ratioP2
14748;SDS011;7466;53.574;9.976;2023-04-12T00:00:16;16.00;;;11.60;;
14748;SDS011;7466;53.574;9.976;2023-04-12T00:02:43;14.97;;;11.60;;
14748;SDS011;7466;53.574;9.976;2023-04-12T00:05:10;20.33;;;11.60;;
14748;SDS011;7466;53.574;9.976;2023-04-12T00:07:37;14.53;;;11.90;;
14748;SDS011;7466;53.574;9.976;2023-04-12T00:10:07;15.80;;;11.50;;
14748;SDS011;7466;53.574;9.976;2023-04-12T00:12:36;19.70;;;11.50;;
14748;SDS011;7466;53.574;9.976;2023-04-12T00:15:05;16.03;;;10.83;;
14748;SDS011;7466;53.574;9.976;2023-04-12T00:17:44;17.73;;;11.63;;
14748;SDS011;7466;53.574;9.976;2023-04-12T00:20:11;14.03;;;12.00;;
14748;SDS011;7466;53.574;9.976;2023-04-12T00:22:40;18.07;;;12.30;;
14748;SDS011;7466;53.574;9.976;2023-04-12T00:25:07;18.30;;;11.73;;
14748;SDS011;7466;53.574;9.976;2023-04-12T00:27:35;17.00;;;12.10;;
14748;SDS011;7466;53.574;9.976;2023-04-12T00:30:02;21.43;;;12.13;;
14748;SDS011;7466;53.574;9.976;2023-04-12T00:32:31;19.57;;;11.23;;
14748;SDS011;7466;53.574;9.976;2023-04-12T00:34:59;15.67;;;10.93;;
14748;SDS011;7466;53.574;9.976;2023-04-12T00:37:26;17.73;;;11.30;;
14748;SDS011;7466;53.574;9.976;2023-04-12T00:39:53;18.10;;;10.00;;
14748;SDS011;7466;53.574;9.976;2023-04-12T00:42:20;18.47;;;10.00;;
14748;SDS011;7466;53.574;9.976;2023-04-12T00:44:47;14.57;;;9.90;;
14748;SDS011;7466;53.574;9.976;2023-04-12T00:47:13;14.20;;;9.33;;
14748;SDS011;7466;53.574;9.976;2023-04-12T00:49:40;13.53;;;9.50;;
14748;SDS011;7466;53.574;9.976;2023-04-12T00:52:11;16.80;;;9.67;;
14748;SDS011;7466;53.574;9.976;2023-04-12T00:54:39;16.00;;;8.30;;
14748;SDS011;7466;53.574;9.976;2023-04-12T00:57:09;14.30;;;7.97;;
14748;SDS011;7466;53.574;9.976;2023-04-12T00:59:37;11.00;;;7.33;;
14748;SDS011;7466;53.574;9.976;2023-04-12T01:02:04;10.17;;;7.30;;
14748;SDS011;7466;53.574;9.976;2023-04-12T01:04:31;11.43;;;7.40;;
14748;SDS011;7466;53.574;9.976;2023-04-12T01:07:04;10.40;;;7.33;;
14748;SDS011;7466;53.574;9.976;2023-04-12T01:09:56;12.70;;;7.03;;
14748;SDS011;7466;53.574;9.976;2023-04-12T01:12:32;9.57;;;7.40;;
14748;SDS011;7466;53.574;9.976;2023-04-12T01:15:08;8.57;;;7.17;;
14748;SDS011;7466;53.574;9.976;2023-04-12T01:17:39;11.77;;;7.77;;
14748;SDS011;7466;53.574;9.976;2023-04-12T01:20:13;10.70;;;7.40;;
14748;SDS011;7466;53.574;9.976;2023-04-12T01:26:10;13.10;;;6.67;;
14748;SDS011;7466;53.574;9.976;2023-04-12T01:28:47;12.57;;;7.03;;
14748;SDS011;7466;53.574;9.976;2023-04-12T01:31:17;14.07;;;6.43;;
14748;SDS011;7466;53.574;9.976;2023-04-12T01:33:51;12.60;;;6.40;;
14748;SDS011;7466;53.574;9.976;2023-04-12T01:36:26;9.60;;;6.23;;
14748;SDS011;7466;53.574;9.976;2023-04-12T01:38:54;13.43;;;6.00;;
14748;SDS011;7466;53.574;9.976;2023-04-12T01:41:22;7.00;;;5.53;;
14748;SDS011;7466;53.574;9.976;2023-04-12T01:43:53;13.33;;;6.17;;
14748;SDS011;7466;53.574;9.976;2023-04-12T01:46:21;9.30;;;6.33;;
14748;SDS011;7466;53.574;9.976;2023-04-12T01:49:01;9.13;;;6.47;;
14748;SDS011;7466;53.574;9.976;2023-04-12T01:51:31;7.90;;;6.10;;
14748;SDS011;7466;53.574;9.976;2023-04-12T01:54:15;7.20;;;5.73;;
14748;SDS011;7466;53.574;9.976;2023-04-12T01:56:45;8.60;;;6.10;;
14748;SDS011;7466;53.574;9.976;2023-04-12T01:59:15;10.03;;;6.03;;
14748;SDS011;7466;53.574;9.976;2023-04-12T02:01:44;6.87;;;5.43;;
14748;SDS011;7466;53.574;9.976;2023-04-12T02:04:12;8.40;;;5.80;;
14748;SDS011;7466;53.574;9.976;2023-04-12T02:06:42;9.97;;;6.70;;
14748;SDS011;7466;53.574;9.976;2023-04-12T02:09:10;9.17;;;5.80;;
14748;SDS011;7466;53.574;9.976;2023-04-12T02:11:37;8.37;;;5.87;;
14748;SDS011;7466;53.574;9.976;2023-04-12T02:14:03;10.27;;;6.03;;
14748;SDS011;7466;53.574;9.976;2023-04-12T02:16:32;10.43;;;5.80;;
14748;SDS011;7466;53.574;9.976;2023-04-12T02:18:59;7.03;;;5.10;;
14748;SDS011;7466;53.574;9.976;2023-04-12T02:21:28;5.67;;;5.07;;
14748;SDS011;7466;53.574;9.976;2023-04-12T02:24:05;9.47;;;5.30;;
14748;SDS011;7466;53.574;9.976;2023-04-12T02:26:32;11.40;;;5.10;;
14748;SDS011;7466;53.574;9.976;2023-04-12T02:28:58;7.00;;;4.77;;
14748;SDS011;7466;53.574;9.976;2023-04-12T02:31:25;7.90;;;5.03;;
14748;SDS011;7466;53.574;9.976;2023-04-12T02:33:53;10.87;;;4.83;;
14748;SDS011;7466;53.574;9.976;2023-04-12T02:36:20;7.63;;;4.93;;
14748;SDS011;7466;53.574;9.976;2023-04-12T02:38:47;8.83;;;4.60;;
14748;SDS011;7466;53.574;9.976;2023-04-12T02:41:15;5.73;;;4.70;;
14748;SDS011;7466;53.574;9.976;2023-04-12T02:43:42;12.43;;;4.23;;
14748;SDS011;7466;53.574;9.976;2023-04-12T02:46:09;6.87;;;4.43;;
14748;SDS011;7466;53.574;9.976;2023-04-12T02:48:40;6.67;;;4.80;;
14748;SDS011;7466;53.574;9.976;2023-04-12T02:51:08;7.60;;;3.97;;
14748;SDS011;7466;53.574;9.976;2023-04-12T02:53:35;8.27;;;4.03;;
14748;SDS011;7466;53.574;9.976;2023-04-12T02:56:02;9.60;;;4.23;;
14748;SDS011;7466;53.574;9.976;2023-04-12T02:58:29;5.63;;;4.00;;
14748;SDS011;7466;53.574;9.976;2023-04-12T03:00:57;7.57;;;4.53;;
14748;SDS011;7466;53.574;9.976;2023-04-12T03:03:24;7.73;;;5.17;;
14748;SDS011;7466;53.574;9.976;2023-04-12T03:05:52;8.50;;;7.20;;
14748;SDS011;7466;53.574;9.976;2023-04-12T03:08:20;12.53;;;7.90;;
14748;SDS011;7466;53.574;9.976;2023-04-12T03:10:47;11.20;;;8.17;;
14748;SDS011;7466;53.574;9.976;2023-04-12T03:13:14;11.93;;;7.50;;
14748;SDS011;7466;53.574;9.976;2023-04-12T03:15:41;12.50;;;6.17;;
14748;SDS011;7466;53.574;9.976;2023-04-12T03:18:08;11.40;;;6.77;;
14748;SDS011;7466;53.574;9.976;2023-04-12T03:20:36;11.53;;;6.37;;
14748;SDS011;7466;53.574;9.976;2023-04-12T03:23:05;9.00;;;6.00;;
14748;SDS011;7466;53.574;9.976;2023-04-12T03:25:33;9.30;;;5.20;;
14748;SDS011;7466;53.574;9.976;2023-04-12T03:28:01;11.50;;;5.47;;
14748;SDS011;7466;53.574;9.976;2023-04-12T03:30:28;10.30;;;5.30;;
14748;SDS011;7466;53.574;9.976;2023-04-12T03:32:55;12.00;;;5.87;;
14748;SDS011;7466;53.574;9.976;2023-04-12T03:35:36;7.47;;;5.33;;
14748;SDS011;7466;53.574;9.976;2023-04-12T03:38:03;7.50;;;4.97;;
14748;SDS011;7466;53.574;9.976;2023-04-12T03:40:29;7.00;;;4.83;;
14748;SDS011;7466;53.574;9.976;2023-04-12T03:42:58;5.20;;;4.70;;
14748;SDS011;7466;53.574;9.976;2023-04-12T03:45:41;6.60;;;4.63;;
14748;SDS011;7466;53.574;9.976;2023-04-12T03:48:08;5.43;;;4.13;;
14748;SDS011;7466;53.574;9.976;2023-04-12T03:50:36;8.13;;;4.33;;
14748;SDS011;7466;53.574;9.976;2023-04-12T03:53:08;8.87;;;3.83;;
14748;SDS011;7466;53.574;9.976;2023-04-12T03:55:41;7.37;;;3.80;;
14748;SDS011;7466;53.574;9.976;2023-04-12T03:58:09;4.50;;;3.47;;
14748;SDS011;7466;53.574;9.976;2023-04-12T04:00:37;6.37;;;3.50;;
14748;SDS011;7466;53.574;9.976;2023-04-12T04:03:04;4.23;;;3.37;;
14748;SDS011;7466;53.574;9.976;2023-04-12T04:05:33;5.13;;;3.13;;
14748;SDS011;7466;53.574;9.976;2023-04-12T04:08:00;4.00;;;3.33;;
14748;SDS011;7466;53.574;9.976;2023-04-12T04:10:33;6.20;;;3.00;;
14748;SDS011;7466;53.574;9.976;2023-04-12T04:13:00;9.97;;;3.70;;
14748;SDS011;7466;53.574;9.976;2023-04-12T04:15:28;4.83;;;3.23;;
14748;SDS011;7466;53.574;9.976;2023-04-12T04:17:55;4.73;;;3.17;;
14748;SDS011;7466;53.574;9.976;2023-04-12T04:20:22;5.97;;;3.17;;
14748;SDS011;7466;53.574;9.976;2023-04-12T04:22:49;5.43;;;3.57;;
14748;SDS011;7466;53.574;9.976;2023-04-12T04:25:17;5.83;;;3.07;;
14748;SDS011;7466;53.574;9.976;2023-04-12T04:27:44;5.57;;;3.07;;
14748;SDS011;7466;53.574;9.976;2023-04-12T04:30:11;4.67;;;2.80;;
14748;SDS011;7466;53.574;9.976;2023-04-12T04:32:40;6.07;;;3.00;;
14748;SDS011;7466;53.574;9.976;2023-04-12T04:35:08;5.60;;;3.37;;
14748;SDS011;7466;53.574;9.976;2023-04-12T04:37:35;7.00;;;3.00;;
14748;SDS011;7466;53.574;9.976;2023-04-12T04:40:01;6.53;;;3.20;;
14748;SDS011;7466;53.574;9.976;2023-04-12T04:42:31;5.10;;;2.90;;
14748;SDS011;7466;53.574;9.976;2023-04-12T04:44:58;7.60;;;3.27;;
14748;SDS011;7466;53.574;9.976;2023-04-12T04:47:28;7.90;;;3.40;;
14748;SDS011;7466;53.574;9.976;2023-04-12T04:49:58;8.67;;;3.37;;
14748;SDS011;7466;53.574;9.976;2023-04-12T04:52:25;4.33;;;2.73;;
14748;SDS011;7466;53.574;9.976;2023-04-12T04:54:52;5.73;;;2.77;;
14748;SDS011;7466;53.574;9.976;2023-04-12T04:57:21;5.40;;;2.90;;
14748;SDS011;7466;53.574;9.976;2023-04-12T04:59:55;4.10;;;2.73;;
14748;SDS011;7466;53.574;9.976;2023-04-12T05:02:21;3.60;;;2.70;;
14748;SDS011;7466;53.574;9.976;2023-04-12T05:04:50;7.37;;;2.90;;
14748;SDS011;7466;53.574;9.976;2023-04-12T05:07:18;6.80;;;2.60;;
14748;SDS011;7466;53.574;9.976;2023-04-12T05:09:44;4.53;;;2.60;;
14748;SDS011;7466;53.574;9.976;2023-04-12T05:12:11;4.83;;;2.73;;
14748;SDS011;7466;53.574;9.976;2023-04-12T05:14:38;5.00;;;2.90;;
14748;SDS011;7466;53.574;9.976;2023-04-12T05:17:09;4.07;;;2.60;;
14748;SDS011;7466;53.574;9.976;2023-04-12T05:19:36;4.53;;;2.67;;
14748;SDS011;7466;53.574;9.976;2023-04-12T05:22:04;5.20;;;2.37;;
14748;SDS011;7466;53.574;9.976;2023-04-12T05:24:32;4.13;;;2.70;;
14748;SDS011;7466;53.574;9.976;2023-04-12T05:26:59;5.43;;;2.60;;
14748;SDS011;7466;53.574;9.976;2023-04-12T05:29:26;5.00;;;2.40;;
14748;SDS011;7466;53.574;9.976;2023-04-12T05:31:53;6.23;;;2.80;;
14748;SDS011;7466;53.574;9.976;2023-04-12T05:34:23;8.00;;;3.27;;
14748;SDS011;7466;53.574;9.976;2023-04-12T05:36:50;4.30;;;2.60;;
14748;SDS011;7466;53.574;9.976;2023-04-12T05:39:17;7.43;;;3.17;;
14748;SDS011;7466;53.574;9.976;2023-04-12T05:41:48;5.33;;;3.23;;
14748;SDS011;7466;53.574;9.976;2023-04-12T05:44:21;5.83;;;2.87;;
14748;SDS011;7466;53.574;9.976;2023-04-12T05:46:48;4.77;;;2.90;;
14748;SDS011;7466;53.574;9.976;2023-04-12T05:49:15;9.90;;;3.20;;
14748;SDS011;7466;53.574;9.976;2023-04-12T05:51:42;14.07;;;4.30;;
14748;SDS011;7466;53.574;9.976;2023-04-12T05:54:09;7.47;;;3.70;;
14748;SDS011;7466;53.574;9.976;2023-04-12T05:56:35;8.37;;;3.83;;
14748;SDS011;7466;53.574;9.976;2023-04-12T05:59:04;8.97;;;4.03;;
14748;SDS011;7466;53.574;9.976;2023-04-12T06:01:31;5.33;;;3.60;;
14748;SDS011;7466;53.574;9.976;2023-04-12T06:03:58;7.67;;;4.30;;
14748;SDS011;7466;53.574;9.976;2023-04-12T06:06:26;7.20;;;3.90;;
14748;SDS011;7466;53.574;9.976;2023-04-12T06:08:54;6.63;;;3.00;;
14748;SDS011;7466;53.574;9.976;2023-04-12T06:11:21;3.40;;;3.10;;
14748;SDS011;7466;53.574;9.976;2023-04-12T06:13:48;10.07;;;3.17;;
14748;SDS011;7466;53.574;9.976;2023-04-12T06:16:20;5.40;;;3.13;;
14748;SDS011;7466;53.574;9.976;2023-04-12T06:18:50;4.10;;;2.57;;
14748;SDS011;7466;53.574;9.976;2023-04-12T06:21:17;7.50;;;2.50;;
14748;SDS011;7466;53.574;9.976;2023-04-12T06:23:44;3.97;;;2.03;;
14748;SDS011;7466;53.574;9.976;2023-04-12T06:26:11;5.37;;;3.00;;
14748;SDS011;7466;53.574;9.976;2023-04-12T06:28:37;5.47;;;2.90;;
14748;SDS011;7466;53.574;9.976;2023-04-12T06:31:04;14.07;;;2.80;;
14748;SDS011;7466;53.574;9.976;2023-04-12T06:33:32;4.40;;;3.10;;
14748;SDS011;7466;53.574;9.976;2023-04-12T06:36:00;5.43;;;2.80;;
14748;SDS011;7466;53.574;9.976;2023-04-12T06:38:27;5.93;;;2.50;;
14748;SDS011;7466;53.574;9.976;2023-04-12T06:40:56;3.50;;;2.40;;
14748;SDS011;7466;53.574;9.976;2023-04-12T06:43:23;4.10;;;2.20;;
14748;SDS011;7466;53.574;9.976;2023-04-12T06:45:49;5.07;;;2.60;;
14748;SDS011;7466;53.574;9.976;2023-04-12T06:48:16;3.93;;;2.53;;
14748;SDS011;7466;53.574;9.976;2023-04-12T06:50:46;4.07;;;2.40;;
14748;SDS011;7466;53.574;9.976;2023-04-12T06:53:12;4.63;;;2.50;;
14748;SDS011;7466;53.574;9.976;2023-04-12T06:55:42;4.67;;;2.63;;
14748;SDS011;7466;53.574;9.976;2023-04-12T06:58:10;4.13;;;2.33;;
14748;SDS011;7466;53.574;9.976;2023-04-12T07:00:37;6.60;;;2.63;;
14748;SDS011;7466;53.574;9.976;2023-04-12T07:03:04;4.50;;;2.33;;
14748;SDS011;7466;53.574;9.976;2023-04-12T07:05:31;2.73;;;2.37;;
14748;SDS011;7466;53.574;9.976;2023-04-12T07:07:59;4.10;;;2.57;;
14748;SDS011;7466;53.574;9.976;2023-04-12T07:10:26;3.97;;;2.70;;
14748;SDS011;7466;53.574;9.976;2023-04-12T07:12:52;3.77;;;2.50;;
14748;SDS011;7466;53.574;9.976;2023-04-12T07:15:21;5.53;;;2.80;;
14748;SDS011;7466;53.574;9.976;2023-04-12T07:17:47;8.17;;;2.50;;
14748;SDS011;7466;53.574;9.976;2023-04-12T07:20:15;6.17;;;2.90;;
14748;SDS011;7466;53.574;9.976;2023-04-12T07:22:41;3.93;;;2.80;;
14748;SDS011;7466;53.574;9.976;2023-04-12T07:25:10;3.63;;;2.60;;
14748;SDS011;7466;53.574;9.976;2023-04-12T07:27:37;7.03;;;2.83;;
14748;SDS011;7466;53.574;9.976;2023-04-12T07:30:04;4.43;;;3.07;;
14748;SDS011;7466;53.574;9.976;2023-04-12T07:32:31;4.70;;;3.10;;
14748;SDS011;7466;53.574;9.976;2023-04-12T07:34:58;4.83;;;2.90;;
14748;SDS011;7466;53.574;9.976;2023-04-12T07:37:25;5.47;;;2.87;;
14748;SDS011;7466;53.574;9.976;2023-04-12T07:39:52;5.93;;;2.70;;
14748;SDS011;7466;53.574;9.976;2023-04-12T07:42:20;3.97;;;2.90;;
14748;SDS011;7466;53.574;9.976;2023-04-12T07:44:47;4.13;;;3.00;;
14748;SDS011;7466;53.574;9.976;2023-04-12T07:47:14;8.00;;;2.80;;
14748;SDS011;7466;53.574;9.976;2023-04-12T07:49:40;5.83;;;2.90;;
14748;SDS011;7466;53.574;9.976;2023-04-12T07:52:07;4.87;;;2.77;;
14748;SDS011;7466;53.574;9.976;2023-04-12T07:54:34;4.80;;;2.90;;
14748;SDS011;7466;53.574;9.976;2023-04-12T07:57:01;6.27;;;3.07;;
14748;SDS011;7466;53.574;9.976;2023-04-12T07:59:30;4.27;;;2.70;;
14748;SDS011;7466;53.574;9.976;2023-04-12T08:01:57;4.30;;;2.70;;
14748;SDS011;7466;53.574;9.976;2023-04-12T08:04:23;5.63;;;3.00;;
14748;SDS011;7466;53.574;9.976;2023-04-12T08:06:52;6.40;;;2.77;;
14748;SDS011;7466;53.574;9.976;2023-04-12T08:09:19;10.70;;;2.93;;
14748;SDS011;7466;53.574;9.976;2023-04-12T08:11:46;8.17;;;3.00;;
14748;SDS011;7466;53.574;9.976;2023-04-12T08:14:13;5.67;;;2.73;;
14748;SDS011;7466;53.574;9.976;2023-04-12T08:16:41;6.03;;;3.20;;
14748;SDS011;7466;53.574;9.976;2023-04-12T08:19:07;4.57;;;2.50;;
14748;SDS011;7466;53.574;9.976;2023-04-12T08:21:35;4.47;;;2.83;;
14748;SDS011;7466;53.574;9.976;2023-04-12T08:24:02;5.47;;;2.77;;
14748;SDS011;7466;53.574;9.976;2023-04-12T08:26:29;8.47;;;3.13;;
14748;SDS011;7466;53.574;9.976;2023-04-12T08:28:56;5.00;;;2.90;;
14748;SDS011;7466;53.574;9.976;2023-04-12T08:31:23;3.10;;;2.80;;
14748;SDS011;7466;53.574;9.976;2023-04-12T08:33:51;3.33;;;3.00;;
14748;SDS011;7466;53.574;9.976;2023-04-12T08:36:18;9.83;;;3.33;;
14748;SDS011;7466;53.574;9.976;2023-04-12T08:38:44;5.67;;;2.73;;
14748;SDS011;7466;53.574;9.976;2023-04-12T08:41:16;4.27;;;3.00;;
14748;SDS011;7466;53.574;9.976;2023-04-12T08:43:44;3.93;;;2.70;;
14748;SDS011;7466;53.574;9.976;2023-04-12T08:46:12;4.77;;;3.23;;
14748;SDS011;7466;53.574;9.976;2023-04-12T08:48:40;4.23;;;2.80;;
14748;SDS011;7466;53.574;9.976;2023-04-12T08:51:11;5.90;;;3.13;;
14748;SDS011;7466;53.574;9.976;2023-04-12T08:53:38;3.97;;;2.87;;
14748;SDS011;7466;53.574;9.976;2023-04-12T08:56:05;8.17;;;3.00;;
14748;SDS011;7466;53.574;9.976;2023-04-12T08:58:34;5.63;;;3.50;;
14748;SDS011;7466;53.574;9.976;2023-04-12T09:01:03;9.30;;;4.03;;
14748;SDS011;7466;53.574;9.976;2023-04-12T09:03:32;6.27;;;4.00;;
14748;SDS011;7466;53.574;9.976;2023-04-12T09:06:00;7.83;;;4.07;;
14748;SDS011;7466;53.574;9.976;2023-04-12T09:08:29;8.27;;;4.20;;
14748;SDS011;7466;53.574;9.976;2023-04-12T09:10:56;6.03;;;4.27;;
14748;SDS011;7466;53.574;9.976;2023-04-12T09:13:30;7.10;;;4.30;;
14748;SDS011;7466;53.574;9.976;2023-04-12T09:15:57;5.47;;;3.80;;
14748;SDS011;7466;53.574;9.976;2023-04-12T09:18:24;8.37;;;4.23;;
14748;SDS011;7466;53.574;9.976;2023-04-12T09:20:54;6.47;;;3.90;;
14748;SDS011;7466;53.574;9.976;2023-04-12T09:23:33;5.43;;;3.93;;
14748;SDS011;7466;53.574;9.976;2023-04-12T09:26:01;5.80;;;3.43;;
14748;SDS011;7466;53.574;9.976;2023-04-12T09:28:28;4.73;;;3.30;;
14748;SDS011;7466;53.574;9.976;2023-04-12T09:30:56;5.03;;;3.57;;
14748;SDS011;7466;53.574;9.976;2023-04-12T09:35:58;6.97;;;3.83;;
14748;SDS011;7466;53.574;9.976;2023-04-12T09:38:26;7.33;;;3.57;;
14748;SDS011;7466;53.574;9.976;2023-04-12T09:40:56;9.33;;;3.20;;
14748;SDS011;7466;53.574;9.976;2023-04-12T09:43:39;7.27;;;3.60;;
14748;SDS011;7466;53.574;9.976;2023-04-12T09:46:08;5.87;;;3.33;;
14748;SDS011;7466;53.574;9.976;2023-04-12T09:48:37;7.37;;;3.00;;
14748;SDS011;7466;53.574;9.976;2023-04-12T09:51:04;5.90;;;3.33;;
14748;SDS011;7466;53.574;9.976;2023-04-12T09:53:32;4.53;;;2.90;;
14748;SDS011;7466;53.574;9.976;2023-04-12T09:56:02;5.23;;;2.60;;
14748;SDS011;7466;53.574;9.976;2023-04-12T09:58:30;3.40;;;3.00;;
14748;SDS011;7466;53.574;9.976;2023-04-12T10:00:58;3.83;;;2.90;;
14748;SDS011;7466;53.574;9.976;2023-04-12T10:03:27;4.57;;;3.10;;
14748;SDS011;7466;53.574;9.976;2023-04-12T10:05:54;4.70;;;2.77;;
14748;SDS011;7466;53.574;9.976;2023-04-12T10:08:21;4.47;;;2.90;;
14748;SDS011;7466;53.574;9.976;2023-04-12T10:10:49;5.63;;;3.27;;
14748;SDS011;7466;53.574;9.976;2023-04-12T10:13:21;5.10;;;3.17;;
14748;SDS011;7466;53.574;9.976;2023-04-12T10:15:50;4.43;;;3.10;;
14748;SDS011;7466;53.574;9.976;2023-04-12T10:18:18;5.50;;;3.23;;
14748;SDS011;7466;53.574;9.976;2023-04-12T10:20:45;8.10;;;3.60;;
14748;SDS011;7466;53.574;9.976;2023-04-12T10:23:12;3.83;;;2.63;;
14748;SDS011;7466;53.574;9.976;2023-04-12T10:25:39;7.83;;;3.83;;
14748;SDS011;7466;53.574;9.976;2023-04-12T10:28:16;4.10;;;3.07;;
14748;SDS011;7466;53.574;9.976;2023-04-12T10:30:52;3.17;;;2.80;;
14748;SDS011;7466;53.574;9.976;2023-04-12T10:33:24;5.50;;;2.80;;
14748;SDS011;7466;53.574;9.976;2023-04-12T10:35:55;4.20;;;2.83;;
14748;SDS011;7466;53.574;9.976;2023-04-12T10:38:24;7.40;;;2.83;;
14748;SDS011;7466;53.574;9.976;2023-04-12T10:41:06;5.47;;;2.40;;
14748;SDS011;7466;53.574;9.976;2023-04-12T10:43:38;4.77;;;3.10;;
14748;SDS011;7466;53.574;9.976;2023-04-12T10:46:06;3.53;;;2.33;;
14748;SDS011;7466;53.574;9.976;2023-04-12T10:48:33;5.33;;;2.40;;
14748;SDS011;7466;53.574;9.976;2023-04-12T10:51:13;4.03;;;2.47;;
14748;SDS011;7466;53.574;9.976;2023-04-12T10:53:45;5.70;;;2.67;;
14748;SDS011;7466;53.574;9.976;2023-04-12T10:59:18;6.53;;;2.73;;
14748;SDS011;7466;53.574;9.976;2023-04-12T11:04:35;4.90;;;2.80;;
14748;SDS011;7466;53.574;9.976;2023-04-12T11:07:05;7.20;;;2.97;;
14748;SDS011;7466;53.574;9.976;2023-04-12T11:09:38;7.10;;;3.10;;
14748;SDS011;7466;53.574;9.976;2023-04-12T11:12:10;9.60;;;3.00;;
14748;SDS011;7466;53.574;9.976;2023-04-12T11:14:42;5.30;;;3.20;;
14748;SDS011;7466;53.574;9.976;2023-04-12T11:17:21;6.70;;;3.30;;
14748;SDS011;7466;53.574;9.976;2023-04-12T11:19:50;8.23;;;3.30;;
14748;SDS011;7466;53.574;9.976;2023-04-12T11:22:20;6.77;;;3.10;;
14748;SDS011;7466;53.574;9.976;2023-04-12T11:24:49;6.83;;;3.10;;
14748;SDS011;7466;53.574;9.976;2023-04-12T11:27:18;5.83;;;2.63;;
14748;SDS011;7466;53.574;9.976;2023-04-12T11:29:47;6.70;;;3.10;;
14748;SDS011;7466;53.574;9.976;2023-04-12T11:32:17;6.50;;;3.17;;
14748;SDS011;7466;53.574;9.976;2023-04-12T11:34:47;5.90;;;3.10;;
14748;SDS011;7466;53.574;9.976;2023-04-12T11:37:15;7.53;;;3.00;;
14748;SDS011;7466;53.574;9.976;2023-04-12T11:39:44;5.73;;;3.47;;
14748;SDS011;7466;53.574;9.976;2023-04-12T11:42:12;7.10;;;3.53;;
14748;SDS011;7466;53.574;9.976;2023-04-12T11:44:41;8.20;;;3.50;;
14748;SDS011;7466;53.574;9.976;2023-04-12T11:47:12;4.70;;;3.73;;
14748;SDS011;7466;53.574;9.976;2023-04-12T11:49:44;5.80;;;3.30;;
14748;SDS011;7466;53.574;9.976;2023-04-12T11:52:14;5.97;;;3.60;;
14748;SDS011;7466;53.574;9.976;2023-04-12T11:54:42;6.97;;;3.97;;
14748;SDS011;7466;53.574;9.976;2023-04-12T11:57:11;7.40;;;4.03;;
14748;SDS011;7466;53.574;9.976;2023-04-12T11:59:38;8.53;;;3.83;;
14748;SDS011;7466;53.574;9.976;2023-04-12T12:02:08;6.87;;;3.90;;
14748;SDS011;7466;53.574;9.976;2023-04-12T12:04:36;6.47;;;4.30;;
14748;SDS011;7466;53.574;9.976;2023-04-12T12:07:04;7.53;;;4.00;;
14748;SDS011;7466;53.574;9.976;2023-04-12T12:09:34;5.27;;;3.60;;
14748;SDS011;7466;53.574;9.976;2023-04-12T12:12:01;7.90;;;4.23;;
14748;SDS011;7466;53.574;9.976;2023-04-12T12:14:28;5.37;;;3.97;;
14748;SDS011;7466;53.574;9.976;2023-04-12T12:16:58;6.00;;;4.20;;
14748;SDS011;7466;53.574;9.976;2023-04-12T12:19:28;5.10;;;4.17;;
14748;SDS011;7466;53.574;9.976;2023-04-12T12:22:15;9.50;;;4.23;;
14748;SDS011;7466;53.574;9.976;2023-04-12T12:24:45;5.90;;;4.30;;
14748;SDS011;7466;53.574;9.976;2023-04-12T12:27:16;8.93;;;4.10;;
14748;SDS011;7466;53.574;9.976;2023-04-12T12:29:47;4.90;;;4.13;;
14748;SDS011;7466;53.574;9.976;2023-04-12T12:32:16;6.63;;;4.40;;
14748;SDS011;7466;53.574;9.976;2023-04-12T12:34:48;7.00;;;4.23;;
14748;SDS011;7466;53.574;9.976;2023-04-12T12:37:19;6.33;;;4.47;;
14748;SDS011;7466;53.574;9.976;2023-04-12T12:40:02;8.00;;;4.23;;
14748;SDS011;7466;53.574;9.976;2023-04-12T12:42:35;5.77;;;4.10;;
14748;SDS011;7466;53.574;9.976;2023-04-12T12:45:03;6.37;;;4.30;;
14748;SDS011;7466;53.574;9.976;2023-04-12T12:47:31;4.90;;;4.03;;
14748;SDS011;7466;53.574;9.976;2023-04-12T12:49:59;6.03;;;4.30;;
14748;SDS011;7466;53.574;9.976;2023-04-12T12:52:26;7.20;;;4.47;;
14748;SDS011;7466;53.574;9.976;2023-04-12T12:54:52;6.87;;;4.70;;
14748;SDS011;7466;53.574;9.976;2023-04-12T12:57:21;6.70;;;4.57;;
14748;SDS011;7466;53.574;9.976;2023-04-12T12:59:47;7.63;;;4.40;;
14748;SDS011;7466;53.574;9.976;2023-04-12T13:02:15;6.27;;;4.60;;
14748;SDS011;7466;53.574;9.976;2023-04-12T13:04:43;8.20;;;4.83;;
14748;SDS011;7466;53.574;9.976;2023-04-12T13:07:10;9.43;;;4.47;;
14748;SDS011;7466;53.574;9.976;2023-04-12T13:09:37;5.70;;;4.43;;
14748;SDS011;7466;53.574;9.976;2023-04-12T13:12:04;9.23;;;4.60;;
14748;SDS011;7466;53.574;9.976;2023-04-12T13:14:32;13.93;;;4.97;;
14748;SDS011;7466;53.574;9.976;2023-04-12T13:16:59;6.57;;;4.50;;
14748;SDS011;7466;53.574;9.976;2023-04-12T13:19:26;12.63;;;4.97;;
14748;SDS011;7466;53.574;9.976;2023-04-12T13:21:53;5.17;;;4.67;;
14748;SDS011;7466;53.574;9.976;2023-04-12T13:24:20;9.23;;;4.80;;
14748;SDS011;7466;53.574;9.976;2023-04-12T13:26:47;5.10;;;4.40;;
14748;SDS011;7466;53.574;9.976;2023-04-12T13:29:14;9.33;;;5.27;;
14748;SDS011;7466;53.574;9.976;2023-04-12T13:31:44;6.53;;;4.70;;
14748;SDS011;7466;53.574;9.976;2023-04-12T13:34:11;5.37;;;4.33;;
14748;SDS011;7466;53.574;9.976;2023-04-12T13:36:38;4.97;;;4.23;;
14748;SDS011;7466;53.574;9.976;2023-04-12T13:39:07;8.77;;;4.37;;
14748;SDS011;7466;53.574;9.976;2023-04-12T13:41:34;10.13;;;4.30;;
14748;SDS011;7466;53.574;9.976;2023-04-12T13:44:01;11.63;;;3.90;;
14748;SDS011;7466;53.574;9.976;2023-04-12T13:46:31;10.70;;;4.43;;
14748;SDS011;7466;53.574;9.976;2023-04-12T13:49:11;5.30;;;3.83;;
14748;SDS011;7466;53.574;9.976;2023-04-12T13:51:48;7.00;;;3.97;;
14748;SDS011;7466;53.574;9.976;2023-04-12T13:54:15;6.20;;;3.97;;
14748;SDS011;7466;53.574;9.976;2023-04-12T13:56:42;4.70;;;3.67;;
14748;SDS011;7466;53.574;9.976;2023-04-12T13:59:09;4.30;;;3.47;;
14748;SDS011;7466;53.574;9.976;2023-04-12T14:01:36;4.80;;;3.50;;
14748;SDS011;7466;53.574;9.976;2023-04-12T14:04:05;3.47;;;3.17;;
14748;SDS011;7466;53.574;9.976;2023-04-12T14:06:33;7.00;;;3.70;;
14748;SDS011;7466;53.574;9.976;2023-04-12T14:09:01;3.63;;;3.33;;
14748;SDS011;7466;53.574;9.976;2023-04-12T14:11:29;5.33;;;3.93;;
14748;SDS011;7466;53.574;9.976;2023-04-12T14:14:09;4.70;;;3.33;;
14748;SDS011;7466;53.574;9.976;2023-04-12T14:16:37;4.47;;;3.50;;
14748;SDS011;7466;53.574;9.976;2023-04-12T14:19:03;3.67;;;3.47;;
14748;SDS011;7466;53.574;9.976;2023-04-12T14:21:31;4.43;;;3.77;;
14748;SDS011;7466;53.574;9.976;2023-04-12T14:23:59;3.63;;;3.27;;
14748;SDS011;7466;53.574;9.976;2023-04-12T14:26:26;5.27;;;3.50;;
14748;SDS011;7466;53.574;9.976;2023-04-12T14:28:53;5.20;;;3.20;;
14748;SDS011;7466;53.574;9.976;2023-04-12T14:31:20;5.40;;;3.57;;
14748;SDS011;7466;53.574;9.976;2023-04-12T14:33:47;4.17;;;3.20;;
14748;SDS011;7466;53.574;9.976;2023-04-12T14:36:13;4.77;;;3.40;;
14748;SDS011;7466;53.574;9.976;2023-04-12T14:38:42;6.13;;;4.03;;
14748;SDS011;7466;53.574;9.976;2023-04-12T14:41:10;5.37;;;3.63;;
14748;SDS011;7466;53.574;9.976;2023-04-12T14:43:37;4.13;;;3.80;;
14748;SDS011;7466;53.574;9.976;2023-04-12T14:46:04;3.80;;;3.30;;
14748;SDS011;7466;53.574;9.976;2023-04-12T14:48:31;5.83;;;3.93;;
14748;SDS011;7466;53.574;9.976;2023-04-12T14:51:01;5.33;;;3.63;;
14748;SDS011;7466;53.574;9.976;2023-04-12T14:53:28;4.07;;;3.47;;
14748;SDS011;7466;53.574;9.976;2023-04-12T14:55:56;5.23;;;3.73;;
14748;SDS011;7466;53.574;9.976;2023-04-12T14:58:24;5.67;;;3.50;;
14748;SDS011;7466;53.574;9.976;2023-04-12T15:00:52;8.87;;;4.17;;
14748;SDS011;7466;53.574;9.976;2023-04-12T15:03:19;5.60;;;4.00;;
14748;SDS011;7466;53.574;9.976;2023-04-12T15:05:46;7.13;;;3.60;;
14748;SDS011;7466;53.574;9.976;2023-04-12T15:08:13;4.67;;;3.83;;
14748;SDS011;7466;53.574;9.976;2023-04-12T15:10:40;8.67;;;4.03;;
14748;SDS011;7466;53.574;9.976;2023-04-12T15:13:10;4.43;;;3.50;;
14748;SDS011;7466;53.574;9.976;2023-04-12T15:15:37;6.10;;;3.33;;
14748;SDS011;7466;53.574;9.976;2023-04-12T15:18:03;6.33;;;3.67;;